sensor_id;sensor_type;location;lat;lon;timestamp;P1;durP1;ratioP1;P2;durP2;ratioP2
21089;SDS011;10703;51.020;6.128;2023-08-21T00:00:54;9.63;;;5.03;;
21089;SDS011;10703;51.020;6.128;2023-08-21T00:03:21;5.63;;;5.10;;
21089;SDS011;10703;51.020;6.128;2023-08-21T00:05:48;9.67;;;5.37;;
21089;SDS011;10703;51.020;6.128;2023-08-21T00:08:15;8.30;;;5.37;;
21089;SDS011;10703;51.020;6.128;2023-08-21T00:10:41;6.20;;;5.03;;
21089;SDS011;10703;51.020;6.128;2023-08-21T00:13:08;7.13;;;5.00;;
21089;SDS011;10703;51.020;6.128;2023-08-21T00:18:04;6.50;;;5.37;;
21089;SDS011;10703;51.020;6.128;2023-08-21T00:20:31;9.33;;;5.60;;
21089;SDS011;10703;51.020;6.128;2023-08-21T00:22:58;11.10;;;5.50;;
21089;SDS011;10703;51.020;6.128;2023-08-21T00:25:25;16.50;;;5.80;;
21089;SDS011;10703;51.020;6.128;2023-08-21T00:27:51;6.87;;;5.70;;
21089;SDS011;10703;51.020;6.128;2023-08-21T00:30:18;7.77;;;5.53;;
21089;SDS011;10703;51.020;6.128;2023-08-21T00:32:44;6.10;;;5.50;;
21089;SDS011;10703;51.020;6.128;2023-08-21T00:35:11;7.37;;;5.47;;
21089;SDS011;10703;51.020;6.128;2023-08-21T00:37:38;7.80;;;5.80;;
21089;SDS011;10703;51.020;6.128;2023-08-21T00:40:05;8.70;;;5.67;;
21089;SDS011;10703;51.020;6.128;2023-08-21T00:42:32;6.70;;;5.47;;
21089;SDS011;10703;51.020;6.128;2023-08-21T00:44:58;8.63;;;5.70;;
21089;SDS011;10703;51.020;6.128;2023-08-21T00:47:25;12.23;;;5.60;;
21089;SDS011;10703;51.020;6.128;2023-08-21T00:49:52;9.53;;;5.77;;
21089;SDS011;10703;51.020;6.128;2023-08-21T00:52:19;9.30;;;5.60;;
21089;SDS011;10703;51.020;6.128;2023-08-21T00:54:45;8.70;;;5.83;;
21089;SDS011;10703;51.020;6.128;2023-08-21T00:57:12;10.93;;;5.60;;
21089;SDS011;10703;51.020;6.128;2023-08-21T00:59:40;7.07;;;5.80;;
21089;SDS011;10703;51.020;6.128;2023-08-21T01:02:07;10.43;;;5.97;;
21089;SDS011;10703;51.020;6.128;2023-08-21T01:04:33;10.80;;;5.63;;
21089;SDS011;10703;51.020;6.128;2023-08-21T01:07:00;7.70;;;5.83;;
21089;SDS011;10703;51.020;6.128;2023-08-21T01:09:29;7.30;;;5.60;;
21089;SDS011;10703;51.020;6.128;2023-08-21T01:12:17;7.93;;;6.30;;
21089;SDS011;10703;51.020;6.128;2023-08-21T01:14:58;11.70;;;5.87;;
21089;SDS011;10703;51.020;6.128;2023-08-21T01:17:38;8.83;;;6.03;;
21089;SDS011;10703;51.020;6.128;2023-08-21T01:20:06;16.00;;;6.17;;
21089;SDS011;10703;51.020;6.128;2023-08-21T01:22:37;10.27;;;6.33;;
21089;SDS011;10703;51.020;6.128;2023-08-21T01:25:06;10.03;;;5.57;;
21089;SDS011;10703;51.020;6.128;2023-08-21T01:27:34;12.47;;;6.30;;
21089;SDS011;10703;51.020;6.128;2023-08-21T01:30:02;6.30;;;5.73;;
21089;SDS011;10703;51.020;6.128;2023-08-21T01:32:50;17.17;;;6.37;;
21089;SDS011;10703;51.020;6.128;2023-08-21T01:35:33;11.37;;;6.20;;
21089;SDS011;10703;51.020;6.128;2023-08-21T01:38:04;9.93;;;5.93;;
21089;SDS011;10703;51.020;6.128;2023-08-21T01:40:31;10.63;;;6.57;;
21089;SDS011;10703;51.020;6.128;2023-08-21T01:42:58;10.70;;;6.20;;
21089;SDS011;10703;51.020;6.128;2023-08-21T01:45:25;15.60;;;7.00;;
21089;SDS011;10703;51.020;6.128;2023-08-21T01:47:52;11.80;;;6.47;;
21089;SDS011;10703;51.020;6.128;2023-08-21T01:50:19;10.70;;;6.57;;
21089;SDS011;10703;51.020;6.128;2023-08-21T01:52:46;8.67;;;6.03;;
21089;SDS011;10703;51.020;6.128;2023-08-21T01:55:12;15.33;;;6.37;;
21089;SDS011;10703;51.020;6.128;2023-08-21T01:57:39;12.03;;;6.73;;
21089;SDS011;10703;51.020;6.128;2023-08-21T02:00:06;10.33;;;6.57;;
21089;SDS011;10703;51.020;6.128;2023-08-21T02:02:34;13.87;;;7.43;;
21089;SDS011;10703;51.020;6.128;2023-08-21T02:05:01;11.27;;;6.80;;
21089;SDS011;10703;51.020;6.128;2023-08-21T02:07:29;14.30;;;6.57;;
21089;SDS011;10703;51.020;6.128;2023-08-21T02:09:56;10.77;;;6.73;;
21089;SDS011;10703;51.020;6.128;2023-08-21T02:12:22;11.43;;;7.23;;
21089;SDS011;10703;51.020;6.128;2023-08-21T02:14:49;10.97;;;8.07;;
21089;SDS011;10703;51.020;6.128;2023-08-21T02:17:16;11.67;;;7.10;;
21089;SDS011;10703;51.020;6.128;2023-08-21T02:19:42;10.87;;;8.07;;
21089;SDS011;10703;51.020;6.128;2023-08-21T02:22:09;13.27;;;8.87;;
21089;SDS011;10703;51.020;6.128;2023-08-21T02:24:35;11.97;;;7.50;;
21089;SDS011;10703;51.020;6.128;2023-08-21T02:27:02;20.37;;;8.60;;
21089;SDS011;10703;51.020;6.128;2023-08-21T02:29:29;20.97;;;8.80;;
21089;SDS011;10703;51.020;6.128;2023-08-21T02:31:56;13.93;;;8.20;;
21089;SDS011;10703;51.020;6.128;2023-08-21T02:34:22;16.97;;;8.43;;
21089;SDS011;10703;51.020;6.128;2023-08-21T02:36:49;17.27;;;8.50;;
21089;SDS011;10703;51.020;6.128;2023-08-21T02:39:15;13.57;;;7.80;;
21089;SDS011;10703;51.020;6.128;2023-08-21T02:41:42;19.63;;;8.70;;
21089;SDS011;10703;51.020;6.128;2023-08-21T02:44:08;15.20;;;8.43;;
21089;SDS011;10703;51.020;6.128;2023-08-21T02:46:35;16.60;;;8.77;;
21089;SDS011;10703;51.020;6.128;2023-08-21T02:49:02;19.50;;;9.10;;
21089;SDS011;10703;51.020;6.128;2023-08-21T02:51:29;13.97;;;8.47;;
21089;SDS011;10703;51.020;6.128;2023-08-21T02:53:56;15.60;;;8.93;;
21089;SDS011;10703;51.020;6.128;2023-08-21T02:56:22;17.13;;;9.27;;
21089;SDS011;10703;51.020;6.128;2023-08-21T02:58:49;14.90;;;9.10;;
21089;SDS011;10703;51.020;6.128;2023-08-21T03:01:15;14.17;;;8.67;;
21089;SDS011;10703;51.020;6.128;2023-08-21T03:03:43;16.60;;;9.50;;
21089;SDS011;10703;51.020;6.128;2023-08-21T03:06:09;16.33;;;9.37;;
21089;SDS011;10703;51.020;6.128;2023-08-21T03:08:36;15.87;;;8.33;;
21089;SDS011;10703;51.020;6.128;2023-08-21T03:11:03;17.17;;;8.97;;
21089;SDS011;10703;51.020;6.128;2023-08-21T03:13:29;11.60;;;8.80;;
21089;SDS011;10703;51.020;6.128;2023-08-21T03:15:56;16.73;;;8.97;;
21089;SDS011;10703;51.020;6.128;2023-08-21T03:18:23;14.77;;;8.50;;
21089;SDS011;10703;51.020;6.128;2023-08-21T03:20:49;18.50;;;10.13;;
21089;SDS011;10703;51.020;6.128;2023-08-21T03:23:16;19.03;;;9.47;;
21089;SDS011;10703;51.020;6.128;2023-08-21T03:25:43;16.63;;;8.77;;
21089;SDS011;10703;51.020;6.128;2023-08-21T03:28:09;14.73;;;8.90;;
21089;SDS011;10703;51.020;6.128;2023-08-21T03:30:38;13.53;;;8.93;;
21089;SDS011;10703;51.020;6.128;2023-08-21T03:33:05;15.43;;;8.83;;
21089;SDS011;10703;51.020;6.128;2023-08-21T03:35:33;13.67;;;9.10;;
21089;SDS011;10703;51.020;6.128;2023-08-21T03:38:00;15.10;;;9.77;;
21089;SDS011;10703;51.020;6.128;2023-08-21T03:40:26;14.40;;;9.70;;
21089;SDS011;10703;51.020;6.128;2023-08-21T03:42:53;13.50;;;9.33;;
21089;SDS011;10703;51.020;6.128;2023-08-21T03:45:20;15.87;;;10.33;;
21089;SDS011;10703;51.020;6.128;2023-08-21T03:47:46;18.20;;;9.83;;
21089;SDS011;10703;51.020;6.128;2023-08-21T03:50:13;21.50;;;10.67;;
21089;SDS011;10703;51.020;6.128;2023-08-21T03:52:39;24.33;;;11.60;;
21089;SDS011;10703;51.020;6.128;2023-08-21T03:55:06;21.57;;;9.70;;
21089;SDS011;10703;51.020;6.128;2023-08-21T03:57:33;24.30;;;10.40;;
21089;SDS011;10703;51.020;6.128;2023-08-21T04:00:00;17.73;;;10.33;;
21089;SDS011;10703;51.020;6.128;2023-08-21T04:02:26;14.53;;;9.17;;
21089;SDS011;10703;51.020;6.128;2023-08-21T04:04:53;16.07;;;9.97;;
21089;SDS011;10703;51.020;6.128;2023-08-21T04:07:20;16.63;;;9.67;;
21089;SDS011;10703;51.020;6.128;2023-08-21T04:09:46;17.90;;;9.83;;
21089;SDS011;10703;51.020;6.128;2023-08-21T04:12:13;15.50;;;9.50;;
21089;SDS011;10703;51.020;6.128;2023-08-21T04:14:39;14.03;;;9.93;;
21089;SDS011;10703;51.020;6.128;2023-08-21T04:17:06;19.67;;;10.23;;
21089;SDS011;10703;51.020;6.128;2023-08-21T04:19:33;21.73;;;10.30;;
21089;SDS011;10703;51.020;6.128;2023-08-21T04:22:00;14.33;;;10.23;;
21089;SDS011;10703;51.020;6.128;2023-08-21T04:24:27;18.07;;;10.77;;
21089;SDS011;10703;51.020;6.128;2023-08-21T04:26:53;19.97;;;10.00;;
21089;SDS011;10703;51.020;6.128;2023-08-21T04:29:20;16.90;;;10.70;;
21089;SDS011;10703;51.020;6.128;2023-08-21T04:31:46;21.93;;;10.67;;
21089;SDS011;10703;51.020;6.128;2023-08-21T04:34:13;13.33;;;10.63;;
21089;SDS011;10703;51.020;6.128;2023-08-21T04:36:40;21.17;;;11.23;;
21089;SDS011;10703;51.020;6.128;2023-08-21T04:39:06;24.33;;;10.83;;
21089;SDS011;10703;51.020;6.128;2023-08-21T04:41:33;20.30;;;9.97;;
21089;SDS011;10703;51.020;6.128;2023-08-21T04:44:00;23.43;;;11.00;;
21089;SDS011;10703;51.020;6.128;2023-08-21T04:46:27;20.87;;;10.43;;
21089;SDS011;10703;51.020;6.128;2023-08-21T04:48:54;16.40;;;10.20;;
21089;SDS011;10703;51.020;6.128;2023-08-21T04:51:20;17.00;;;9.93;;
21089;SDS011;10703;51.020;6.128;2023-08-21T04:53:47;14.87;;;10.87;;
21089;SDS011;10703;51.020;6.128;2023-08-21T04:56:14;16.77;;;10.23;;
21089;SDS011;10703;51.020;6.128;2023-08-21T04:58:40;21.67;;;10.40;;
21089;SDS011;10703;51.020;6.128;2023-08-21T05:01:07;15.10;;;9.93;;
21089;SDS011;10703;51.020;6.128;2023-08-21T05:03:34;15.67;;;10.57;;
21089;SDS011;10703;51.020;6.128;2023-08-21T05:06:02;16.67;;;9.60;;
21089;SDS011;10703;51.020;6.128;2023-08-21T05:08:28;14.33;;;9.90;;
21089;SDS011;10703;51.020;6.128;2023-08-21T05:10:56;13.67;;;9.27;;
21089;SDS011;10703;51.020;6.128;2023-08-21T05:13:23;18.10;;;9.70;;
21089;SDS011;10703;51.020;6.128;2023-08-21T05:15:51;13.43;;;9.77;;
21089;SDS011;10703;51.020;6.128;2023-08-21T05:18:21;15.90;;;9.60;;
21089;SDS011;10703;51.020;6.128;2023-08-21T05:20:49;13.90;;;9.43;;
21089;SDS011;10703;51.020;6.128;2023-08-21T05:23:17;13.97;;;9.17;;
21089;SDS011;10703;51.020;6.128;2023-08-21T05:25:44;14.77;;;8.87;;
21089;SDS011;10703;51.020;6.128;2023-08-21T05:28:11;15.03;;;9.17;;
21089;SDS011;10703;51.020;6.128;2023-08-21T05:30:38;16.53;;;9.43;;
21089;SDS011;10703;51.020;6.128;2023-08-21T05:33:05;14.83;;;8.93;;
21089;SDS011;10703;51.020;6.128;2023-08-21T05:35:35;12.97;;;8.77;;
21089;SDS011;10703;51.020;6.128;2023-08-21T05:38:02;15.90;;;8.80;;
21089;SDS011;10703;51.020;6.128;2023-08-21T05:40:30;15.83;;;9.00;;
21089;SDS011;10703;51.020;6.128;2023-08-21T05:42:57;8.97;;;7.90;;
21089;SDS011;10703;51.020;6.128;2023-08-21T05:45:24;13.47;;;9.10;;
21089;SDS011;10703;51.020;6.128;2023-08-21T05:47:51;12.60;;;8.63;;
21089;SDS011;10703;51.020;6.128;2023-08-21T05:50:17;11.63;;;8.40;;
21089;SDS011;10703;51.020;6.128;2023-08-21T05:52:44;11.27;;;8.67;;
21089;SDS011;10703;51.020;6.128;2023-08-21T05:55:11;13.20;;;8.50;;
21089;SDS011;10703;51.020;6.128;2023-08-21T05:57:37;15.50;;;8.97;;
21089;SDS011;10703;51.020;6.128;2023-08-21T06:00:06;14.50;;;8.50;;
21089;SDS011;10703;51.020;6.128;2023-08-21T06:02:35;10.27;;;7.73;;
21089;SDS011;10703;51.020;6.128;2023-08-21T06:05:02;12.03;;;8.33;;
21089;SDS011;10703;51.020;6.128;2023-08-21T06:07:29;8.83;;;7.43;;
21089;SDS011;10703;51.020;6.128;2023-08-21T06:09:56;14.73;;;7.63;;
21089;SDS011;10703;51.020;6.128;2023-08-21T06:12:22;20.07;;;7.37;;
21089;SDS011;10703;51.020;6.128;2023-08-21T06:14:49;12.03;;;6.97;;
21089;SDS011;10703;51.020;6.128;2023-08-21T06:17:16;9.80;;;6.33;;
21089;SDS011;10703;51.020;6.128;2023-08-21T06:19:43;8.27;;;6.33;;
21089;SDS011;10703;51.020;6.128;2023-08-21T06:22:09;10.07;;;6.37;;
21089;SDS011;10703;51.020;6.128;2023-08-21T06:24:36;8.77;;;6.13;;
21089;SDS011;10703;51.020;6.128;2023-08-21T06:27:03;11.23;;;6.03;;
21089;SDS011;10703;51.020;6.128;2023-08-21T06:29:33;14.40;;;6.17;;
21089;SDS011;10703;51.020;6.128;2023-08-21T06:32:00;9.37;;;6.20;;
21089;SDS011;10703;51.020;6.128;2023-08-21T06:34:26;8.87;;;6.20;;
21089;SDS011;10703;51.020;6.128;2023-08-21T06:36:53;11.33;;;6.07;;
21089;SDS011;10703;51.020;6.128;2023-08-21T06:39:20;9.57;;;5.77;;
21089;SDS011;10703;51.020;6.128;2023-08-21T06:41:46;11.10;;;5.97;;
21089;SDS011;10703;51.020;6.128;2023-08-21T06:44:13;9.13;;;6.50;;
21089;SDS011;10703;51.020;6.128;2023-08-21T06:46:42;10.38;;;5.82;;
21089;SDS011;10703;51.020;6.128;2023-08-21T06:49:08;9.73;;;6.00;;
21089;SDS011;10703;51.020;6.128;2023-08-21T06:51:35;13.67;;;5.50;;
21089;SDS011;10703;51.020;6.128;2023-08-21T06:54:02;10.73;;;6.40;;
21089;SDS011;10703;51.020;6.128;2023-08-21T06:56:28;11.43;;;5.90;;
21089;SDS011;10703;51.020;6.128;2023-08-21T06:58:55;11.63;;;6.20;;
21089;SDS011;10703;51.020;6.128;2023-08-21T07:01:22;7.87;;;6.00;;
21089;SDS011;10703;51.020;6.128;2023-08-21T07:03:48;8.27;;;5.43;;
21089;SDS011;10703;51.020;6.128;2023-08-21T07:06:15;8.27;;;5.37;;
21089;SDS011;10703;51.020;6.128;2023-08-21T07:08:42;10.52;;;5.15;;
21089;SDS011;10703;51.020;6.128;2023-08-21T07:11:08;6.10;;;4.53;;
21089;SDS011;10703;51.020;6.128;2023-08-21T07:13:36;7.35;;;4.40;;
21089;SDS011;10703;51.020;6.128;2023-08-21T07:16:03;7.32;;;4.50;;
21089;SDS011;10703;51.020;6.128;2023-08-21T07:18:35;8.45;;;4.40;;
21089;SDS011;10703;51.020;6.128;2023-08-21T07:21:02;5.72;;;3.80;;
21089;SDS011;10703;51.020;6.128;2023-08-21T07:23:37;7.70;;;4.40;;
21089;SDS011;10703;51.020;6.128;2023-08-21T07:26:04;7.22;;;3.97;;
21089;SDS011;10703;51.020;6.128;2023-08-21T07:28:33;6.65;;;3.70;;
21089;SDS011;10703;51.020;6.128;2023-08-21T07:30:59;8.57;;;4.10;;
21089;SDS011;10703;51.020;6.128;2023-08-21T07:33:27;6.03;;;3.65;;
21089;SDS011;10703;51.020;6.128;2023-08-21T07:36:01;9.43;;;3.70;;
21089;SDS011;10703;51.020;6.128;2023-08-21T07:38:29;9.80;;;3.63;;
21089;SDS011;10703;51.020;6.128;2023-08-21T07:41:06;8.02;;;3.70;;
21089;SDS011;10703;51.020;6.128;2023-08-21T07:43:36;8.05;;;3.78;;
21089;SDS011;10703;51.020;6.128;2023-08-21T07:46:07;10.13;;;4.07;;
21089;SDS011;10703;51.020;6.128;2023-08-21T07:48:45;5.45;;;3.67;;
21089;SDS011;10703;51.020;6.128;2023-08-21T07:51:11;8.65;;;4.03;;
21089;SDS011;10703;51.020;6.128;2023-08-21T07:53:39;16.17;;;3.80;;
21089;SDS011;10703;51.020;6.128;2023-08-21T07:56:06;12.55;;;4.30;;
21089;SDS011;10703;51.020;6.128;2023-08-21T07:58:33;8.15;;;3.83;;
21089;SDS011;10703;51.020;6.128;2023-08-21T08:00:59;9.60;;;4.35;;
21089;SDS011;10703;51.020;6.128;2023-08-21T08:03:27;7.38;;;4.13;;
21089;SDS011;10703;51.020;6.128;2023-08-21T08:05:54;9.38;;;4.38;;
21089;SDS011;10703;51.020;6.128;2023-08-21T08:08:21;10.48;;;4.28;;
21089;SDS011;10703;51.020;6.128;2023-08-21T08:10:48;11.65;;;4.10;;
21089;SDS011;10703;51.020;6.128;2023-08-21T08:13:15;7.68;;;4.22;;
21089;SDS011;10703;51.020;6.128;2023-08-21T08:15:42;7.25;;;4.30;;
21089;SDS011;10703;51.020;6.128;2023-08-21T08:18:12;11.02;;;4.57;;
21089;SDS011;10703;51.020;6.128;2023-08-21T08:20:39;6.32;;;4.35;;
21089;SDS011;10703;51.020;6.128;2023-08-21T08:23:06;9.85;;;4.30;;
21089;SDS011;10703;51.020;6.128;2023-08-21T08:25:33;5.72;;;4.38;;
21089;SDS011;10703;51.020;6.128;2023-08-21T08:28:00;11.77;;;4.90;;
21089;SDS011;10703;51.020;6.128;2023-08-21T08:30:26;6.82;;;4.10;;
21089;SDS011;10703;51.020;6.128;2023-08-21T08:32:53;8.23;;;4.60;;
21089;SDS011;10703;51.020;6.128;2023-08-21T08:35:20;7.32;;;4.47;;
21089;SDS011;10703;51.020;6.128;2023-08-21T08:37:46;10.88;;;4.05;;
21089;SDS011;10703;51.020;6.128;2023-08-21T08:40:13;9.13;;;4.10;;
21089;SDS011;10703;51.020;6.128;2023-08-21T08:42:40;7.95;;;4.13;;
21089;SDS011;10703;51.020;6.128;2023-08-21T08:45:06;6.45;;;4.10;;
21089;SDS011;10703;51.020;6.128;2023-08-21T08:47:33;7.65;;;4.90;;
21089;SDS011;10703;51.020;6.128;2023-08-21T08:50:02;10.00;;;4.63;;
21089;SDS011;10703;51.020;6.128;2023-08-21T08:52:31;11.27;;;4.60;;
21089;SDS011;10703;51.020;6.128;2023-08-21T08:55:01;11.52;;;4.53;;
21089;SDS011;10703;51.020;6.128;2023-08-21T08:57:29;10.63;;;4.10;;
21089;SDS011;10703;51.020;6.128;2023-08-21T08:59:56;8.02;;;4.10;;
21089;SDS011;10703;51.020;6.128;2023-08-21T09:02:24;12.45;;;4.10;;
21089;SDS011;10703;51.020;6.128;2023-08-21T09:04:52;6.18;;;4.07;;
21089;SDS011;10703;51.020;6.128;2023-08-21T09:07:19;12.13;;;4.28;;
21089;SDS011;10703;51.020;6.128;2023-08-21T09:09:47;6.72;;;4.22;;
21089;SDS011;10703;51.020;6.128;2023-08-21T09:12:16;12.32;;;4.18;;
21089;SDS011;10703;51.020;6.128;2023-08-21T09:14:44;8.32;;;4.70;;
21089;SDS011;10703;51.020;6.128;2023-08-21T09:17:11;16.17;;;5.15;;
21089;SDS011;10703;51.020;6.128;2023-08-21T09:19:38;11.48;;;4.75;;
21089;SDS011;10703;51.020;6.128;2023-08-21T09:22:09;10.27;;;4.30;;
21089;SDS011;10703;51.020;6.128;2023-08-21T09:27:34;7.75;;;4.10;;
21089;SDS011;10703;51.020;6.128;2023-08-21T09:30:06;7.60;;;4.15;;
21089;SDS011;10703;51.020;6.128;2023-08-21T09:35:22;9.45;;;3.88;;
21089;SDS011;10703;51.020;6.128;2023-08-21T09:37:49;6.38;;;3.33;;
21089;SDS011;10703;51.020;6.128;2023-08-21T09:40:19;6.32;;;3.65;;
21089;SDS011;10703;51.020;6.128;2023-08-21T09:42:54;12.02;;;3.85;;
21089;SDS011;10703;51.020;6.128;2023-08-21T09:45:25;7.13;;;3.55;;
21089;SDS011;10703;51.020;6.128;2023-08-21T09:47:54;5.65;;;3.33;;
21089;SDS011;10703;51.020;6.128;2023-08-21T09:50:21;15.18;;;4.43;;
21089;SDS011;10703;51.020;6.128;2023-08-21T09:52:48;8.93;;;3.35;;
21089;SDS011;10703;51.020;6.128;2023-08-21T09:55:15;5.63;;;3.25;;
21089;SDS011;10703;51.020;6.128;2023-08-21T09:57:43;12.23;;;3.63;;
21089;SDS011;10703;51.020;6.128;2023-08-21T10:00:11;16.00;;;3.55;;
21089;SDS011;10703;51.020;6.128;2023-08-21T10:02:50;6.95;;;3.15;;
21089;SDS011;10703;51.020;6.128;2023-08-21T10:05:17;7.82;;;3.08;;
21089;SDS011;10703;51.020;6.128;2023-08-21T10:07:48;5.35;;;2.75;;
21089;SDS011;10703;51.020;6.128;2023-08-21T10:10:16;6.72;;;3.03;;
21089;SDS011;10703;51.020;6.128;2023-08-21T10:12:44;4.82;;;2.90;;
21089;SDS011;10703;51.020;6.128;2023-08-21T10:15:10;8.90;;;2.80;;
21089;SDS011;10703;51.020;6.128;2023-08-21T10:17:37;4.72;;;2.70;;
21089;SDS011;10703;51.020;6.128;2023-08-21T10:20:05;7.97;;;3.45;;
21089;SDS011;10703;51.020;6.128;2023-08-21T10:23:23;6.20;;;2.70;;
21089;SDS011;10703;51.020;6.128;2023-08-21T10:25:28;6.63;;;2.72;;
21089;SDS011;10703;51.020;6.128;2023-08-21T10:27:58;4.40;;;2.40;;
21089;SDS011;10703;51.020;6.128;2023-08-21T10:30:30;4.78;;;2.65;;
21089;SDS011;10703;51.020;6.128;2023-08-21T10:32:58;5.70;;;2.17;;
21089;SDS011;10703;51.020;6.128;2023-08-21T10:35:29;4.75;;;2.38;;
21089;SDS011;10703;51.020;6.128;2023-08-21T10:38:07;5.80;;;2.28;;
21089;SDS011;10703;51.020;6.128;2023-08-21T10:40:35;4.97;;;2.38;;
21089;SDS011;10703;51.020;6.128;2023-08-21T10:43:03;8.10;;;2.40;;
21089;SDS011;10703;51.020;6.128;2023-08-21T10:45:30;6.25;;;2.83;;
21089;SDS011;10703;51.020;6.128;2023-08-21T10:47:58;6.05;;;2.53;;
21089;SDS011;10703;51.020;6.128;2023-08-21T10:50:25;3.65;;;2.20;;
21089;SDS011;10703;51.020;6.128;2023-08-21T10:52:53;3.97;;;2.15;;
21089;SDS011;10703;51.020;6.128;2023-08-21T10:55:20;6.30;;;2.25;;
21089;SDS011;10703;51.020;6.128;2023-08-21T10:57:47;4.43;;;2.38;;
21089;SDS011;10703;51.020;6.128;2023-08-21T11:00:16;3.72;;;1.95;;
21089;SDS011;10703;51.020;6.128;2023-08-21T11:02:44;4.85;;;2.30;;
21089;SDS011;10703;51.020;6.128;2023-08-21T11:05:13;4.38;;;2.00;;
21089;SDS011;10703;51.020;6.128;2023-08-21T11:07:41;3.20;;;1.90;;
21089;SDS011;10703;51.020;6.128;2023-08-21T11:10:11;4.82;;;1.90;;
21089;SDS011;10703;51.020;6.128;2023-08-21T11:12:52;6.70;;;2.30;;
21089;SDS011;10703;51.020;6.128;2023-08-21T11:15:24;3.45;;;2.05;;
21089;SDS011;10703;51.020;6.128;2023-08-21T11:17:56;3.85;;;2.10;;
21089;SDS011;10703;51.020;6.128;2023-08-21T11:20:32;6.03;;;2.25;;
21089;SDS011;10703;51.020;6.128;2023-08-21T11:23:01;5.65;;;2.20;;
21089;SDS011;10703;51.020;6.128;2023-08-21T11:25:33;6.78;;;2.00;;
21089;SDS011;10703;51.020;6.128;2023-08-21T11:28:00;4.80;;;2.40;;
21089;SDS011;10703;51.020;6.128;2023-08-21T11:30:30;5.00;;;2.25;;
21089;SDS011;10703;51.020;6.128;2023-08-21T11:33:05;5.00;;;2.40;;
21089;SDS011;10703;51.020;6.128;2023-08-21T11:35:37;6.63;;;2.25;;
21089;SDS011;10703;51.020;6.128;2023-08-21T11:38:04;5.15;;;2.35;;
21089;SDS011;10703;51.020;6.128;2023-08-21T11:40:35;5.90;;;2.20;;
21089;SDS011;10703;51.020;6.128;2023-08-21T11:43:02;5.32;;;2.20;;
21089;SDS011;10703;51.020;6.128;2023-08-21T11:45:31;8.15;;;2.33;;
21089;SDS011;10703;51.020;6.128;2023-08-21T11:48:10;4.28;;;2.10;;
21089;SDS011;10703;51.020;6.128;2023-08-21T11:50:37;7.57;;;2.63;;
21089;SDS011;10703;51.020;6.128;2023-08-21T11:53:05;5.45;;;2.40;;
21089;SDS011;10703;51.020;6.128;2023-08-21T11:55:32;7.07;;;2.72;;
21089;SDS011;10703;51.020;6.128;2023-08-21T11:58:01;4.80;;;2.33;;
21089;SDS011;10703;51.020;6.128;2023-08-21T12:00:28;6.55;;;2.30;;
21089;SDS011;10703;51.020;6.128;2023-08-21T12:02:56;3.53;;;2.20;;
21089;SDS011;10703;51.020;6.128;2023-08-21T12:05:25;3.90;;;2.10;;
21089;SDS011;10703;51.020;6.128;2023-08-21T12:07:53;3.33;;;2.00;;
21089;SDS011;10703;51.020;6.128;2023-08-21T12:10:26;4.38;;;2.13;;
21089;SDS011;10703;51.020;6.128;2023-08-21T12:12:56;6.43;;;2.55;;
21089;SDS011;10703;51.020;6.128;2023-08-21T12:15:22;5.13;;;2.20;;
21089;SDS011;10703;51.020;6.128;2023-08-21T12:17:49;5.53;;;2.20;;
21089;SDS011;10703;51.020;6.128;2023-08-21T12:20:16;10.27;;;2.30;;
21089;SDS011;10703;51.020;6.128;2023-08-21T12:22:43;4.45;;;2.03;;
21089;SDS011;10703;51.020;6.128;2023-08-21T12:25:09;4.85;;;2.40;;
21089;SDS011;10703;51.020;6.128;2023-08-21T12:27:36;3.03;;;2.17;;
21089;SDS011;10703;51.020;6.128;2023-08-21T12:30:04;5.05;;;2.47;;
21089;SDS011;10703;51.020;6.128;2023-08-21T12:32:31;5.88;;;2.20;;
21089;SDS011;10703;51.020;6.128;2023-08-21T12:34:58;4.68;;;2.28;;
21089;SDS011;10703;51.020;6.128;2023-08-21T12:37:25;5.50;;;2.20;;
21089;SDS011;10703;51.020;6.128;2023-08-21T12:39:53;6.38;;;2.63;;
21089;SDS011;10703;51.020;6.128;2023-08-21T12:42:19;5.55;;;2.70;;
21089;SDS011;10703;51.020;6.128;2023-08-21T12:44:46;4.55;;;2.30;;
21089;SDS011;10703;51.020;6.128;2023-08-21T12:47:13;4.70;;;2.30;;
21089;SDS011;10703;51.020;6.128;2023-08-21T12:49:39;5.28;;;2.20;;
21089;SDS011;10703;51.020;6.128;2023-08-21T12:52:06;4.32;;;2.30;;
21089;SDS011;10703;51.020;6.128;2023-08-21T12:54:36;8.48;;;2.58;;
21089;SDS011;10703;51.020;6.128;2023-08-21T12:57:03;5.03;;;2.75;;
21089;SDS011;10703;51.020;6.128;2023-08-21T12:59:29;7.28;;;2.67;;
21089;SDS011;10703;51.020;6.128;2023-08-21T13:01:58;7.20;;;2.50;;
21089;SDS011;10703;51.020;6.128;2023-08-21T13:04:26;7.55;;;2.50;;
21089;SDS011;10703;51.020;6.128;2023-08-21T13:06:53;7.38;;;2.55;;
21089;SDS011;10703;51.020;6.128;2023-08-21T13:09:19;6.55;;;2.47;;
21089;SDS011;10703;51.020;6.128;2023-08-21T13:11:46;5.28;;;2.60;;
21089;SDS011;10703;51.020;6.128;2023-08-21T13:14:13;4.97;;;2.40;;
21089;SDS011;10703;51.020;6.128;2023-08-21T13:16:39;8.55;;;2.85;;
21089;SDS011;10703;51.020;6.128;2023-08-21T13:19:06;8.13;;;2.35;;
21089;SDS011;10703;51.020;6.128;2023-08-21T13:21:33;7.22;;;2.30;;
21089;SDS011;10703;51.020;6.128;2023-08-21T13:23:59;6.45;;;2.60;;
21089;SDS011;10703;51.020;6.128;2023-08-21T13:26:29;4.65;;;2.35;;
21089;SDS011;10703;51.020;6.128;2023-08-21T13:28:57;8.25;;;2.75;;
21089;SDS011;10703;51.020;6.128;2023-08-21T13:31:23;4.28;;;2.47;;
21089;SDS011;10703;51.020;6.128;2023-08-21T13:33:50;5.53;;;2.50;;
21089;SDS011;10703;51.020;6.128;2023-08-21T13:36:17;3.92;;;2.30;;
21089;SDS011;10703;51.020;6.128;2023-08-21T13:38:44;4.57;;;2.38;;
21089;SDS011;10703;51.020;6.128;2023-08-21T13:41:11;7.50;;;2.53;;
21089;SDS011;10703;51.020;6.128;2023-08-21T13:43:38;7.55;;;2.88;;
21089;SDS011;10703;51.020;6.128;2023-08-21T13:46:06;4.78;;;2.50;;
21089;SDS011;10703;51.020;6.128;2023-08-21T13:48:35;6.40;;;2.78;;
21089;SDS011;10703;51.020;6.128;2023-08-21T13:51:02;7.28;;;2.58;;
21089;SDS011;10703;51.020;6.128;2023-08-21T13:53:29;7.18;;;2.60;;
21089;SDS011;10703;51.020;6.128;2023-08-21T13:55:55;5.80;;;2.97;;
21089;SDS011;10703;51.020;6.128;2023-08-21T13:58:22;4.70;;;2.70;;
21089;SDS011;10703;51.020;6.128;2023-08-21T14:00:48;7.03;;;3.33;;
21089;SDS011;10703;51.020;6.128;2023-08-21T14:03:15;5.18;;;2.67;;
21089;SDS011;10703;51.020;6.128;2023-08-21T14:05:42;8.43;;;2.80;;
21089;SDS011;10703;51.020;6.128;2023-08-21T14:08:09;7.72;;;2.70;;
21089;SDS011;10703;51.020;6.128;2023-08-21T14:10:35;18.23;;;3.22;;
21089;SDS011;10703;51.020;6.128;2023-08-21T14:13:02;7.30;;;2.28;;
21089;SDS011;10703;51.020;6.128;2023-08-21T14:15:30;7.43;;;2.58;;
21089;SDS011;10703;51.020;6.128;2023-08-21T14:17:56;3.80;;;2.10;;
21089;SDS011;10703;51.020;6.128;2023-08-21T14:20:23;4.50;;;2.47;;
21089;SDS011;10703;51.020;6.128;2023-08-21T14:22:49;7.03;;;2.63;;
21089;SDS011;10703;51.020;6.128;2023-08-21T14:25:17;4.50;;;2.50;;
21089;SDS011;10703;51.020;6.128;2023-08-21T14:27:43;5.53;;;2.15;;
21089;SDS011;10703;51.020;6.128;2023-08-21T14:30:10;18.10;;;3.10;;
21089;SDS011;10703;51.020;6.128;2023-08-21T14:32:37;4.10;;;2.50;;
21089;SDS011;10703;51.020;6.128;2023-08-21T14:35:04;2.75;;;2.30;;
21089;SDS011;10703;51.020;6.128;2023-08-21T14:37:34;4.82;;;2.28;;
21089;SDS011;10703;51.020;6.128;2023-08-21T14:40:01;7.00;;;2.42;;
21089;SDS011;10703;51.020;6.128;2023-08-21T14:42:34;6.90;;;2.40;;
21089;SDS011;10703;51.020;6.128;2023-08-21T14:45:00;4.85;;;2.60;;
21089;SDS011;10703;51.020;6.128;2023-08-21T14:47:27;5.00;;;2.75;;
21089;SDS011;10703;51.020;6.128;2023-08-21T14:49:54;4.30;;;2.45;;
21089;SDS011;10703;51.020;6.128;2023-08-21T14:52:21;8.07;;;3.95;;